Time;durP1;ratioP1;P1;durP2;ratioP2;P2;SDS_P1;SDS_P2;PMS_P1;PMS_P2;Temp;Humidity;BMP_temperature;BMP_pressure;BME280_temperature;BME280_humidity;BME280_pressure;Samples;Min_cycle;Max_cycle;Signal;HPM_P1;HPM_P2
2023/01/28 00:00:55;;;;;;;2.30;1.10;;;2.50;99.90;;;;;;5077841;28;20482;-58
2023/01/28 00:03:22;;;;;;;2.00;1.08;;;2.50;99.90;;;;;;5077740;28;20473;-58
2023/01/28 00:05:50;;;;;;;2.33;1.20;;;2.60;99.90;;;;;;5077723;28;20548;-58
2023/01/28 00:08:17;;;;;;;2.10;1.00;;;2.70;99.90;;;;;;5078013;28;20427;-58
2023/01/28 00:10:44;;;;;;;2.40;1.10;;;2.80;99.90;;;;;;5077447;28;20512;-58
2023/01/28 00:13:14;;;;;;;1.95;1.00;;;2.90;99.90;;;;;;5077508;28;20427;-58
2023/01/28 00:15:43;;;;;;;1.60;1.05;;;2.70;99.90;;;;;;5076659;28;20415;-58
2023/01/28 00:18:10;;;;;;;1.60;0.90;;;2.60;99.90;;;;;;5077550;28;20498;-58
2023/01/28 00:20:37;;;;;;;2.47;1.10;;;2.70;99.90;;;;;;5077778;28;20416;-58
2023/01/28 00:23:05;;;;;;;1.80;1.00;;;2.70;99.90;;;;;;5076446;28;20412;-58
2023/01/28 00:25:32;;;;;;;1.80;1.00;;;2.70;99.90;;;;;;5076798;28;20419;-59
2023/01/28 00:27:59;;;;;;;1.40;1.10;;;2.60;99.90;;;;;;5076759;28;20423;-58
2023/01/28 00:30:27;;;;;;;3.20;1.00;;;2.50;99.90;;;;;;5076104;28;20528;-57
2023/01/28 00:32:55;;;;;;;1.67;1.00;;;2.60;99.90;;;;;;5076024;28;20428;-58
2023/01/28 00:35:23;;;;;;;2.53;1.15;;;2.50;99.90;;;;;;5075482;28;20802;-58
2023/01/28 00:37:50;;;;;;;1.58;1.00;;;2.50;99.90;;;;;;5074714;28;20485;-58
2023/01/28 00:40:18;;;;;;;1.98;1.00;;;2.60;99.90;;;;;;5075070;28;20447;-58
2023/01/28 00:42:45;;;;;;;2.33;1.10;;;2.60;99.90;;;;;;5076487;28;20480;-58
2023/01/28 00:45:12;;;;;;;1.67;0.98;;;2.50;99.90;;;;;;5075996;28;20459;-58
2023/01/28 00:47:39;;;;;;;1.80;1.00;;;2.50;99.90;;;;;;5075397;28;20530;-59
2023/01/28 00:50:09;;;;;;;2.25;1.17;;;2.60;99.90;;;;;;5074384;28;20973;-58
2023/01/28 00:52:37;;;;;;;1.50;0.90;;;2.50;99.90;;;;;;5076851;28;20436;-58
2023/01/28 00:55:04;;;;;;;2.20;1.10;;;2.60;99.90;;;;;;5076914;28;20485;-58
2023/01/28 00:57:32;;;;;;;1.70;1.00;;;2.60;99.90;;;;;;5075810;28;20463;-57
2023/01/28 00:59:59;;;;;;;2.05;1.10;;;2.70;99.90;;;;;;5076548;28;20423;-58
2023/01/28 01:02:26;;;;;;;1.85;1.10;;;2.60;99.90;;;;;;5076167;28;20823;-58
2023/01/28 01:05:00;;;;;;;1.70;1.00;;;2.50;99.90;;;;;;5076282;28;20459;-58
2023/01/28 01:07:40;;;;;;;1.40;0.90;;;2.30;99.90;;;;;;5076679;28;20461;-58
2023/01/28 01:10:09;;;;;;;2.08;1.00;;;2.20;99.90;;;;;;5076502;28;20427;-58
2023/01/28 01:12:36;;;;;;;1.50;1.02;;;2.00;99.90;;;;;;5075049;28;20471;-58
2023/01/28 01:15:07;;;;;;;1.20;0.90;;;2.00;99.90;;;;;;5075235;28;20532;-58
2023/01/28 01:17:36;;;;;;;1.80;1.00;;;2.20;99.90;;;;;;5074808;28;20894;-58
2023/01/28 01:20:03;;;;;;;1.83;0.90;;;2.20;99.90;;;;;;5073997;28;20877;-63
2023/01/28 01:22:35;;;;;;;2.28;1.00;;;2.20;99.90;;;;;;5075368;28;20424;-58
2023/01/28 01:25:02;;;;;;;2.47;1.10;;;2.40;99.90;;;;;;5075357;28;20485;-58
2023/01/28 01:27:30;;;;;;;1.42;0.90;;;2.30;99.90;;;;;;5075596;28;20427;-59
2023/01/28 01:29:57;;;;;;;1.60;1.10;;;2.30;99.90;;;;;;5075759;28;20734;-58
2023/01/28 01:32:25;;;;;;;2.08;1.10;;;2.20;99.90;;;;;;5075576;28;20436;-58
2023/01/28 01:34:52;;;;;;;1.60;0.98;;;2.10;99.90;;;;;;5076018;28;20800;-58
2023/01/28 01:37:20;;;;;;;1.47;1.00;;;1.90;99.90;;;;;;5075231;28;20952;-58
2023/01/28 01:39:49;;;;;;;1.70;1.00;;;1.90;99.90;;;;;;5075655;28;20909;-58
2023/01/28 01:42:16;;;;;;;1.67;0.90;;;2.10;99.90;;;;;;5074998;28;20430;-58
2023/01/28 01:45:01;;;;;;;1.80;0.90;;;2.10;99.90;;;;;;5075696;28;20420;-57
2023/01/28 01:47:35;;;;;;;1.88;1.00;;;2.10;99.90;;;;;;5075511;28;20463;-61
2023/01/28 01:50:05;;;;;;;2.00;1.00;;;2.20;99.90;;;;;;5074294;28;20459;-56
2023/01/28 01:52:35;;;;;;;1.67;0.90;;;2.30;99.90;;;;;;5075173;28;20530;-58
2023/01/28 01:55:09;;;;;;;2.10;1.00;;;2.30;99.90;;;;;;5075272;28;20473;-57
2023/01/28 01:57:37;;;;;;;2.00;1.00;;;2.40;99.90;;;;;;5075117;28;20636;-57
2023/01/28 02:00:07;;;;;;;2.00;0.93;;;2.30;99.90;;;;;;5075129;28;20486;-59
2023/01/28 02:02:39;;;;;;;2.50;0.98;;;2.10;99.90;;;;;;5074063;28;20497;-57
2023/01/28 02:05:08;;;;;;;2.30;1.20;;;2.00;99.90;;;;;;5073574;28;20929;-58
2023/01/28 02:07:36;;;;;;;1.80;1.00;;;2.00;99.90;;;;;;5073122;28;20432;-57
2023/01/28 02:10:08;;;;;;;2.50;1.00;;;2.00;99.90;;;;;;5073255;28;20481;-58
2023/01/28 02:12:37;;;;;;;1.83;1.10;;;1.90;99.90;;;;;;5072866;28;20472;-58
2023/01/28 02:15:08;;;;;;;1.70;1.00;;;1.90;99.90;;;;;;5072988;28;20419;-58
2023/01/28 02:17:36;;;;;;;1.83;0.90;;;2.10;99.90;;;;;;5072376;28;20795;-58
2023/01/28 02:20:06;;;;;;;1.80;1.02;;;2.30;99.90;;;;;;5072820;28;20419;-57
2023/01/28 02:23:01;;;;;;;2.00;1.08;;;2.30;99.90;;;;;;5074326;28;20829;-57
2023/01/28 02:26:03;;;;;;;1.60;1.00;;;2.10;99.90;;;;;;5074483;28;20792;-56
2023/01/28 02:28:39;;;;;;;1.88;1.10;;;2.00;99.90;;;;;;5075523;28;20455;-58
2023/01/28 02:31:14;;;;;;;2.20;0.90;;;2.00;99.90;;;;;;5075371;28;20789;-57
2023/01/28 02:33:49;;;;;;;2.30;1.00;;;2.30;99.90;;;;;;5074627;28;20920;-58
2023/01/28 02:36:24;;;;;;;1.55;0.90;;;2.50;99.90;;;;;;5074745;28;20427;-58
2023/01/28 02:38:54;;;;;;;2.00;1.00;;;2.50;99.90;;;;;;5075174;28;20476;-58
2023/01/28 02:41:28;;;;;;;2.00;0.90;;;2.50;99.90;;;;;;5074689;28;20469;-58
2023/01/28 02:43:57;;;;;;;1.70;0.80;;;2.40;99.90;;;;;;5072600;28;20416;-58
2023/01/28 02:49:23;;;;;;;1.70;1.00;;;2.50;99.90;;;;;;5073143;28;20403;-59
2023/01/28 02:52:03;;;;;;;1.90;0.90;;;2.60;99.90;;;;;;5073622;28;20488;-58
2023/01/28 02:54:40;;;;;;;1.60;0.90;;;2.70;99.90;;;;;;5073719;28;20764;-58
2023/01/28 02:57:18;;;;;;;1.50;0.85;;;2.80;99.90;;;;;;5073370;28;20469;-58
2023/01/28 02:59:54;;;;;;;1.40;0.80;;;2.60;99.90;;;;;;5073595;28;20431;-58
2023/01/28 03:02:31;;;;;;;1.35;1.00;;;2.60;99.90;;;;;;5074426;28;20470;-58
2023/01/28 03:05:03;;;;;;;1.60;0.90;;;2.70;99.90;;;;;;5075167;28;20727;-58
2023/01/28 03:07:34;;;;;;;1.80;0.90;;;2.90;99.90;;;;;;5072672;28;21019;-58
2023/01/28 03:10:04;;;;;;;1.70;0.90;;;3.00;99.90;;;;;;5072994;28;20502;-57
2023/01/28 03:37:53;;;;;;;2.10;1.30;;;2.40;99.90;;;;;;5071486;28;20454;-57
2023/01/28 03:40:21;;;;;;;2.20;1.20;;;2.10;99.90;;;;;;5073957;28;20459;-58
2023/01/28 03:42:48;;;;;;;2.40;1.30;;;2.20;99.90;;;;;;5075002;28;20457;-57
2023/01/28 03:45:15;;;;;;;2.10;1.20;;;2.50;99.90;;;;;;5074236;28;20451;-57
2023/01/28 03:47:44;;;;;;;3.30;1.50;;;2.40;99.90;;;;;;5075049;28;20473;-58
2023/01/28 03:50:11;;;;;;;1.80;1.10;;;2.10;99.90;;;;;;5074373;28;20431;-58
2023/01/28 03:52:39;;;;;;;2.20;1.30;;;2.20;99.90;;;;;;5074324;28;20463;-58
2023/01/28 03:55:12;;;;;;;2.40;1.20;;;2.20;99.90;;;;;;5074129;28;20415;-57
2023/01/28 03:57:40;;;;;;;2.90;1.40;;;2.10;99.90;;;;;;5073658;28;20431;-55
2023/01/28 04:00:10;;;;;;;2.55;1.30;;;2.20;99.90;;;;;;5073735;28;20469;-58
2023/01/28 04:02:38;;;;;;;2.50;1.60;;;2.30;99.90;;;;;;5074467;28;20748;-57
2023/01/28 04:05:12;;;;;;;2.10;1.40;;;2.40;99.90;;;;;;5073903;28;20995;-58
2023/01/28 04:07:39;;;;;;;2.63;1.40;;;2.20;99.90;;;;;;5074273;28;20462;-57
2023/01/28 04:10:08;;;;;;;2.70;1.40;;;2.10;99.90;;;;;;5072873;28;20797;-62
2023/01/28 04:12:36;;;;;;;3.67;1.40;;;2.30;99.90;;;;;;5073221;28;20427;-57
2023/01/28 04:15:14;;;;;;;2.50;1.30;;;2.30;99.90;;;;;;5072775;28;20742;-57
2023/01/28 04:17:44;;;;;;;2.50;1.50;;;2.20;99.90;;;;;;5072567;28;20439;-57
2023/01/28 04:20:14;;;;;;;4.05;1.70;;;2.10;99.90;;;;;;5073017;28;20416;-58
2023/01/28 04:22:42;;;;;;;3.00;1.70;;;2.10;99.90;;;;;;5073180;28;20459;-58
2023/01/28 04:25:10;;;;;;;2.95;1.70;;;2.10;99.90;;;;;;5077185;28;20415;-57
2023/01/28 04:27:37;;;;;;;2.38;1.70;;;2.10;99.90;;;;;;5076885;28;20503;-58
2023/01/28 04:30:05;;;;;;;2.60;1.70;;;2.00;99.90;;;;;;5076831;28;20455;-56
2023/01/28 04:32:32;;;;;;;3.40;1.70;;;2.10;99.90;;;;;;5078139;28;20462;-57
2023/01/28 04:34:59;;;;;;;4.00;2.58;;;2.10;99.90;;;;;;5077542;28;20716;-57
2023/01/28 04:37:28;;;;;;;3.03;1.52;;;2.20;99.90;;;;;;5077992;28;20427;-58
2023/01/28 04:39:55;;;;;;;2.40;1.52;;;2.20;99.90;;;;;;5076491;28;20427;-58
2023/01/28 04:42:23;;;;;;;2.72;1.50;;;2.10;99.90;;;;;;5077946;28;20455;-57
2023/01/28 04:44:50;;;;;;;3.20;1.50;;;2.00;99.90;;;;;;5077161;28;20419;-58
2023/01/28 04:47:18;;;;;;;3.03;1.60;;;2.00;99.90;;;;;;5077834;28;20763;-57
2023/01/28 04:49:46;;;;;;;3.03;1.65;;;2.10;99.90;;;;;;5077013;28;20705;-58
2023/01/28 04:52:13;;;;;;;3.58;1.80;;;2.30;99.90;;;;;;5076675;28;20436;-57
2023/01/28 04:54:42;;;;;;;3.58;1.50;;;2.50;99.90;;;;;;5075579;28;20474;-57
2023/01/28 04:57:09;;;;;;;2.70;1.60;;;2.40;99.90;;;;;;5076489;28;20904;-57
2023/01/28 04:59:36;;;;;;;2.83;1.30;;;2.30;99.90;;;;;;5076864;28;20449;-60
2023/01/28 05:02:04;;;;;;;2.83;1.60;;;2.30;99.90;;;;;;5076938;28;20632;-57
2023/01/28 05:04:31;;;;;;;3.60;1.70;;;2.20;99.90;;;;;;5076280;28;20419;-56
2023/01/28 05:06:59;;;;;;;2.78;1.77;;;2.10;99.90;;;;;;5077246;28;20438;-58
2023/01/28 05:09:26;;;;;;;2.83;1.88;;;2.00;99.90;;;;;;5077180;28;20870;-57
2023/01/28 05:11:55;;;;;;;3.23;1.60;;;2.00;99.90;;;;;;5077303;28;20467;-56
2023/01/28 05:14:22;;;;;;;3.65;2.00;;;1.90;99.90;;;;;;5076759;28;20440;-57
2023/01/28 05:16:50;;;;;;;2.90;1.50;;;1.80;99.90;;;;;;5077079;28;20466;-57
2023/01/28 05:19:18;;;;;;;2.58;1.60;;;1.80;99.90;;;;;;5076601;28;20459;-55
2023/01/28 05:21:45;;;;;;;3.95;1.90;;;1.80;99.90;;;;;;5076907;28;20557;-57
2023/01/28 05:24:13;;;;;;;2.38;1.50;;;1.90;99.90;;;;;;5076991;28;20439;-57
2023/01/28 05:26:40;;;;;;;3.50;1.90;;;1.90;99.90;;;;;;5076746;28;20527;-57
2023/01/28 05:29:09;;;;;;;3.58;2.10;;;1.90;99.90;;;;;;5076848;28;20423;-58
2023/01/28 05:31:36;;;;;;;2.83;1.77;;;1.90;99.90;;;;;;5076502;28;20459;-57
2023/01/28 05:34:03;;;;;;;3.50;2.25;;;2.00;99.90;;;;;;5075808;28;20781;-58
2023/01/28 05:36:30;;;;;;;3.22;1.90;;;2.20;99.90;;;;;;5075482;28;20526;-58
2023/01/28 05:38:58;;;;;;;3.63;1.60;;;2.20;99.90;;;;;;5075705;28;20858;-57
2023/01/28 05:41:25;;;;;;;3.03;1.70;;;2.30;99.90;;;;;;5076061;28;20447;-58
2023/01/28 05:43:52;;;;;;;3.00;1.73;;;2.40;99.90;;;;;;5075800;28;20454;-58
2023/01/28 05:46:21;;;;;;;4.47;2.10;;;2.30;99.90;;;;;;5075825;28;20463;-57
2023/01/28 05:48:49;;;;;;;4.23;1.90;;;2.20;99.90;;;;;;5075814;28;20492;-57
2023/01/28 05:51:17;;;;;;;3.80;2.10;;;2.00;99.90;;;;;;5075296;28;20431;-57
2023/01/28 05:53:44;;;;;;;3.25;1.70;;;1.90;99.90;;;;;;5075151;28;20518;-57
2023/01/28 05:56:11;;;;;;;3.35;1.60;;;1.90;99.90;;;;;;5074534;28;20419;-56
2023/01/28 05:58:39;;;;;;;2.88;1.70;;;1.90;99.90;;;;;;5074402;28;20513;-56
2023/01/28 06:01:06;;;;;;;2.80;1.50;;;1.90;99.90;;;;;;5074432;28;20482;-56
2023/01/28 06:03:35;;;;;;;2.70;1.30;;;1.90;99.90;;;;;;5074417;28;20521;-57
2023/01/28 06:06:02;;;;;;;3.47;1.60;;;2.00;99.90;;;;;;5074265;28;20427;-56
2023/01/28 06:08:29;;;;;;;3.13;1.30;;;2.10;99.90;;;;;;5075320;28;20455;-57
2023/01/28 06:10:56;;;;;;;2.90;1.55;;;2.30;99.90;;;;;;5074339;28;20471;-57
2023/01/28 06:13:24;;;;;;;2.45;1.40;;;2.40;99.90;;;;;;5074853;28;20462;-57
2023/01/28 06:15:51;;;;;;;2.17;1.60;;;2.50;99.90;;;;;;5074579;28;20835;-55
2023/01/28 06:18:18;;;;;;;2.40;1.50;;;2.50;99.90;;;;;;5074817;28;20423;-55
2023/01/28 06:20:49;;;;;;;2.63;1.58;;;2.60;99.90;;;;;;5074420;28;20484;-55
2023/01/28 06:23:16;;;;;;;2.08;1.23;;;2.50;99.90;;;;;;5074777;28;20518;-56
2023/01/28 06:25:44;;;;;;;2.50;1.40;;;2.50;99.90;;;;;;5075252;28;20404;-56
2023/01/28 06:28:11;;;;;;;3.92;1.60;;;2.30;99.90;;;;;;5075471;28;20465;-57
2023/01/28 06:30:38;;;;;;;2.40;1.60;;;2.50;99.90;;;;;;5074923;28;20507;-57
2023/01/28 06:33:06;;;;;;;3.63;1.60;;;2.50;99.90;;;;;;5073491;28;20826;-57
2023/01/28 06:35:33;;;;;;;3.08;1.80;;;2.40;99.90;;;;;;5071413;28;20438;-57
2023/01/28 06:38:03;;;;;;;3.38;1.40;;;2.30;99.90;;;;;;5062951;28;20770;-56
2023/01/28 06:40:30;;;;;;;2.40;1.45;;;2.50;99.90;;;;;;5068553;28;20469;-56
2023/01/28 06:42:57;;;;;;;2.30;1.60;;;2.60;99.90;;;;;;5072574;28;20525;-58
2023/01/28 06:45:25;;;;;;;2.40;1.20;;;2.60;99.90;;;;;;5072671;28;20547;-58
2023/01/28 06:47:52;;;;;;;3.20;1.40;;;2.70;99.90;;;;;;5071356;28;20463;-58
2023/01/28 06:50:19;;;;;;;2.20;1.40;;;2.60;99.90;;;;;;5074471;28;20512;-57
2023/01/28 06:52:47;;;;;;;2.88;1.60;;;2.70;99.90;;;;;;5075350;28;20941;-58
2023/01/28 06:55:15;;;;;;;2.63;1.40;;;2.70;99.90;;;;;;5075002;28;20790;-59
2023/01/28 06:57:44;;;;;;;1.90;1.30;;;2.90;99.90;;;;;;5075017;28;20485;-59
2023/01/28 07:00:14;;;;;;;2.65;1.58;;;3.20;99.90;;;;;;5075099;28;20430;-59
2023/01/28 07:02:41;;;;;;;1.90;1.20;;;3.40;99.90;;;;;;5075239;28;20430;-59
2023/01/28 07:05:09;;;;;;;2.72;1.63;;;3.30;99.90;;;;;;5075231;28;20412;-60
2023/01/28 07:07:37;;;;;;;2.00;1.10;;;3.60;99.90;;;;;;5074889;28;20441;-57
2023/01/28 07:10:05;;;;;;;1.70;1.20;;;3.60;99.90;;;;;;5074859;28;20435;-60
2023/01/28 07:12:33;;;;;;;3.90;1.90;;;3.60;99.90;;;;;;5074716;28;20455;-59
2023/01/28 07:15:01;;;;;;;2.83;1.45;;;3.40;99.90;;;;;;5074769;28;20508;-59
2023/01/28 07:17:28;;;;;;;2.50;1.50;;;3.50;99.90;;;;;;5075405;28;20431;-59
2023/01/28 07:19:55;;;;;;;2.70;1.67;;;3.50;99.90;;;;;;5074027;28;20459;-60
2023/01/28 07:22:22;;;;;;;3.70;1.60;;;3.70;99.90;;;;;;5073799;28;20960;-59
2023/01/28 07:24:50;;;;;;;2.60;1.50;;;3.60;99.90;;;;;;5072871;28;20419;-60
2023/01/28 07:27:17;;;;;;;3.00;1.67;;;3.50;99.90;;;;;;5072844;28;20834;-60
2023/01/28 07:29:46;;;;;;;2.93;1.40;;;3.40;99.90;;;;;;5072962;28;20450;-60
2023/01/28 07:32:13;;;;;;;2.60;1.30;;;3.60;99.90;;;;;;5072389;28;20506;-60
2023/01/28 07:34:41;;;;;;;2.40;1.50;;;3.60;99.90;;;;;;5071950;28;20796;-59
2023/01/28 07:37:09;;;;;;;3.47;1.85;;;3.90;99.90;;;;;;5073169;28;20570;-60
2023/01/28 07:39:36;;;;;;;2.80;1.50;;;4.00;99.90;;;;;;5073617;28;20454;-60
2023/01/28 07:42:05;;;;;;;2.50;1.60;;;4.00;99.90;;;;;;5073116;28;20838;-59
2023/01/28 07:44:33;;;;;;;2.05;1.42;;;3.80;99.90;;;;;;5071606;28;20418;-59
2023/01/28 07:47:02;;;;;;;2.80;1.45;;;4.00;99.90;;;;;;5070891;28;20498;-59
2023/01/28 07:49:29;;;;;;;2.33;1.50;;;4.10;99.90;;;;;;5072822;28;20447;-57
2023/01/28 07:51:56;;;;;;;2.60;1.60;;;4.20;99.90;;;;;;5072979;28;20427;-59
2023/01/28 07:54:23;;;;;;;3.30;1.80;;;4.00;99.90;;;;;;5072579;28;20874;-60
2023/01/28 07:56:51;;;;;;;4.72;2.50;;;4.00;99.90;;;;;;5073830;28;20473;-60
2023/01/28 07:59:18;;;;;;;2.30;1.63;;;3.90;99.90;;;;;;5076783;28;20800;-60
2023/01/28 08:01:45;;;;;;;2.85;1.70;;;3.50;99.90;;;;;;5078278;28;20879;-60
2023/01/28 08:04:14;;;;;;;3.45;1.75;;;3.20;99.90;;;;;;5078070;28;20481;-60
2023/01/28 08:06:41;;;;;;;4.57;1.98;;;3.40;99.90;;;;;;5077482;28;20500;-60
2023/01/28 08:09:09;;;;;;;4.13;2.42;;;3.60;99.90;;;;;;5077510;28;20472;-59
2023/01/28 08:11:38;;;;;;;3.40;2.28;;;3.70;99.90;;;;;;5078221;28;20462;-59
2023/01/28 08:14:06;;;;;;;2.60;1.90;;;3.80;99.90;;;;;;5077653;28;20819;-59
2023/01/28 08:16:33;;;;;;;2.70;1.47;;;3.80;99.90;;;;;;5077151;28;20466;-58
2023/01/28 08:19:01;;;;;;;2.80;1.80;;;4.10;99.90;;;;;;5077932;28;20423;-58
2023/01/28 08:21:30;;;;;;;4.00;2.22;;;4.20;99.90;;;;;;5077587;28;20423;-58
2023/01/28 08:23:57;;;;;;;4.10;2.20;;;4.00;99.90;;;;;;5077202;28;20512;-60
2023/01/28 08:26:24;;;;;;;3.03;1.50;;;4.00;99.90;;;;;;5077470;28;20453;-58
2023/01/28 08:28:52;;;;;;;2.90;1.60;;;4.00;99.90;;;;;;5077523;28;20423;-59
2023/01/28 08:31:19;;;;;;;3.05;1.80;;;4.20;99.90;;;;;;5077681;28;20484;-60
2023/01/28 08:33:46;;;;;;;4.82;2.00;;;4.30;99.90;;;;;;5076868;28;20770;-60
2023/01/28 08:36:14;;;;;;;3.20;1.90;;;4.20;99.90;;;;;;5076887;28;20435;-60
2023/01/28 08:38:43;;;;;;;3.90;2.45;;;4.10;99.90;;;;;;5076884;28;20720;-60
2023/01/28 08:41:10;;;;;;;3.38;2.05;;;3.80;99.90;;;;;;5056916;28;20440;-60
2023/01/28 08:43:37;;;;;;;4.10;2.20;;;3.50;99.90;;;;;;5056633;28;20471;-60
2023/01/28 08:46:07;;;;;;;4.32;1.85;;;3.40;99.90;;;;;;5055664;28;20425;-60
2023/01/28 08:48:34;;;;;;;3.10;1.90;;;3.40;99.90;;;;;;5056802;28;20418;-60
2023/01/28 08:51:01;;;;;;;4.10;2.35;;;3.90;99.90;;;;;;5056936;28;20476;-59
2023/01/28 08:53:29;;;;;;;4.45;2.20;;;3.70;99.90;;;;;;5055641;28;20446;-60
2023/01/28 08:55:57;;;;;;;3.75;2.13;;;3.90;99.90;;;;;;5054373;28;20824;-60
2023/01/28 08:58:25;;;;;;;5.45;2.47;;;3.70;99.90;;;;;;5056205;28;20452;-60
2023/01/28 09:00:52;;;;;;;4.00;2.05;;;3.70;99.90;;;;;;5055647;28;20479;-60
2023/01/28 09:03:19;;;;;;;4.33;1.80;;;3.70;99.90;;;;;;5056706;28;21001;-60
2023/01/28 09:05:48;;;;;;;5.35;2.78;;;4.10;99.90;;;;;;5058586;28;20722;-60
2023/01/28 09:08:16;;;;;;;4.70;2.60;;;4.20;99.90;;;;;;5072378;28;20431;-60
2023/01/28 09:10:43;;;;;;;4.77;2.40;;;3.90;99.90;;;;;;5071224;28;20428;-60
2023/01/28 09:13:14;;;;;;;3.67;2.00;;;4.10;99.90;;;;;;5059312;28;20515;-60
2023/01/28 09:15:42;;;;;;;6.07;2.60;;;4.30;99.90;;;;;;5072737;28;20431;-60
2023/01/28 09:18:09;;;;;;;3.60;2.10;;;4.30;99.90;;;;;;5074398;28;20739;-60
2023/01/28 09:20:37;;;;;;;3.72;1.83;;;4.10;99.90;;;;;;5075710;28;20859;-60
2023/01/28 09:23:05;;;;;;;4.30;2.65;;;4.20;99.90;;;;;;5072112;28;20508;-60
2023/01/28 09:25:33;;;;;;;3.45;2.60;;;4.10;99.90;;;;;;5058680;28;20465;-60
2023/01/28 09:28:00;;;;;;;3.55;2.45;;;4.00;99.90;;;;;;5056726;28;20796;-61
2023/01/28 09:30:29;;;;;;;4.97;2.78;;;4.10;99.90;;;;;;5073056;28;20815;-60
2023/01/28 09:32:58;;;;;;;6.00;2.80;;;4.00;99.90;;;;;;5073978;28;20482;-60
2023/01/28 09:35:25;;;;;;;4.97;2.78;;;3.80;99.90;;;;;;5071069;28;20433;-61
2023/01/28 09:37:56;;;;;;;5.10;2.70;;;3.80;99.90;;;;;;5055326;28;21690;-60
2023/01/28 09:40:31;;;;;;;5.70;2.70;;;4.20;99.90;;;;;;5056039;28;20421;-60
2023/01/28 09:43:28;;;;;;;3.30;2.38;;;4.50;99.90;;;;;;5057803;28;20487;-60
2023/01/28 09:46:00;;;;;;;4.50;2.33;;;4.70;99.90;;;;;;5074567;28;20451;-60
2023/01/28 09:48:33;;;;;;;3.85;2.33;;;4.50;99.90;;;;;;5070247;28;20457;-60
2023/01/28 09:51:01;;;;;;;4.38;2.40;;;4.30;99.90;;;;;;5067986;28;20431;-60
2023/01/28 09:53:32;;;;;;;4.93;3.25;;;4.40;99.90;;;;;;5075766;28;20420;-60
2023/01/28 09:56:03;;;;;;;4.90;2.40;;;4.40;99.90;;;;;;5074550;28;20924;-60
2023/01/28 09:58:31;;;;;;;4.57;2.58;;;4.70;99.90;;;;;;5072241;28;20457;-60
2023/01/28 10:01:05;;;;;;;5.10;2.90;;;4.60;99.90;;;;;;5060247;28;20453;-61
2023/01/28 10:03:53;;;;;;;5.45;2.40;;;4.10;99.90;;;;;;5054000;28;20844;-60
2023/01/28 10:06:31;;;;;;;4.25;2.10;;;4.00;99.90;;;;;;5065252;28;20486;-60
2023/01/28 10:09:31;;;;;;;5.67;3.33;;;4.10;99.90;;;;;;5056864;28;20502;-60
2023/01/28 10:12:13;;;;;;;4.55;2.80;;;3.80;99.90;;;;;;5020111;28;20516;-61
2023/01/28 10:14:52;;;;;;;5.77;2.90;;;3.70;99.90;;;;;;5032337;28;20827;-61
2023/01/28 10:17:26;;;;;;;3.17;2.50;;;3.80;99.90;;;;;;5034088;28;20427;-61
2023/01/28 10:19:58;;;;;;;5.55;3.20;;;4.00;99.90;;;;;;5032432;28;20435;-61
2023/01/28 10:22:30;;;;;;;5.77;2.97;;;4.20;99.90;;;;;;5021950;28;20468;-61
2023/01/28 10:25:05;;;;;;;5.18;2.50;;;4.20;99.90;;;;;;5024710;28;20452;-61
2023/01/28 10:27:34;;;;;;;3.65;2.10;;;4.10;99.90;;;;;;5020363;28;20446;-61
2023/01/28 10:30:16;;;;;;;5.68;3.47;;;4.10;99.90;;;;;;5015052;28;20436;-61
2023/01/28 10:32:51;;;;;;;5.13;3.30;;;4.00;99.90;;;;;;5023734;28;20429;-61
2023/01/28 10:35:19;;;;;;;5.80;3.00;;;4.20;99.90;;;;;;5025540;28;20465;-61
2023/01/28 10:37:47;;;;;;;5.03;2.53;;;4.30;99.90;;;;;;5027932;28;20459;-61
2023/01/28 10:40:16;;;;;;;5.18;2.97;;;4.10;99.90;;;;;;5028471;28;20746;-61
2023/01/28 10:42:45;;;;;;;5.10;3.20;;;4.10;99.90;;;;;;5031140;28;20514;-60
2023/01/28 10:45:19;;;;;;;5.32;2.47;;;4.10;99.90;;;;;;5014739;28;20417;-60
2023/01/28 10:47:51;;;;;;;3.63;2.45;;;4.00;99.90;;;;;;5020937;28;20443;-60
2023/01/28 10:50:23;;;;;;;5.75;2.60;;;4.10;99.90;;;;;;5033915;28;20427;-62
2023/01/28 10:52:55;;;;;;;8.48;3.97;;;4.20;99.90;;;;;;5031349;28;20928;-61
2023/01/28 10:55:24;;;;;;;4.82;2.90;;;4.20;99.90;;;;;;5019217;28;20435;-60
2023/01/28 10:57:51;;;;;;;5.77;2.70;;;4.30;99.90;;;;;;5029839;28;20468;-61
2023/01/28 11:00:29;;;;;;;4.43;2.90;;;4.50;99.90;;;;;;5024915;28;20429;-61
2023/01/28 11:02:59;;;;;;;5.32;2.97;;;4.70;99.90;;;;;;5021580;28;20450;-60
2023/01/28 11:05:29;;;;;;;5.68;2.60;;;4.80;99.90;;;;;;5028578;28;20470;-60
2023/01/28 11:08:15;;;;;;;5.50;2.97;;;4.90;99.90;;;;;;5021160;28;20448;-61
2023/01/28 11:10:43;;;;;;;3.63;2.60;;;5.20;99.90;;;;;;5040507;28;20435;-60
2023/01/28 11:13:16;;;;;;;3.43;2.10;;;5.40;99.90;;;;;;5061045;28;20484;-61
2023/01/28 11:15:48;;;;;;;5.55;2.72;;;5.40;99.90;;;;;;5062634;28;20427;-60
2023/01/28 11:18:23;;;;;;;5.05;2.47;;;5.60;99.90;;;;;;5067635;28;20872;-60
2023/01/28 11:20:53;;;;;;;5.90;3.10;;;5.60;99.90;;;;;;5067875;28;20876;-60
2023/01/28 11:23:24;;;;;;;4.50;3.20;;;5.50;99.90;;;;;;5056520;28;20799;-61
2023/01/28 11:26:02;;;;;;;5.15;3.00;;;5.20;99.90;;;;;;5054274;28;20424;-61
2023/01/28 11:28:31;;;;;;;4.28;2.20;;;4.90;99.90;;;;;;5053352;28;20436;-59
2023/01/28 11:31:01;;;;;;;5.00;3.35;;;5.00;99.90;;;;;;5070960;28;20883;-60
2023/01/28 11:33:36;;;;;;;4.65;2.50;;;4.70;99.90;;;;;;5073643;28;20479;-60
2023/01/28 11:36:13;;;;;;;6.22;4.18;;;4.60;99.90;;;;;;5057977;28;20469;-60
2023/01/28 11:38:52;;;;;;;5.38;2.60;;;4.30;99.90;;;;;;5057950;28;20420;-60
2023/01/28 11:41:26;;;;;;;6.07;3.92;;;4.20;99.90;;;;;;5059696;28;20436;-59
2023/01/28 11:43:54;;;;;;;5.53;3.00;;;4.20;99.90;;;;;;5059945;28;20956;-61
2023/01/28 11:46:59;;;;;;;6.90;3.45;;;4.40;99.90;;;;;;5061134;28;20456;-60
2023/01/28 11:49:40;;;;;;;6.18;3.67;;;4.60;99.90;;;;;;5059820;28;20461;-60
2023/01/28 11:52:17;;;;;;;5.38;2.60;;;4.70;99.90;;;;;;5067448;28;20948;-60
2023/01/28 11:54:56;;;;;;;7.38;3.55;;;4.90;99.90;;;;;;5072958;28;20799;-59
2023/01/28 11:57:26;;;;;;;7.05;3.22;;;4.90;99.90;;;;;;5072726;28;20528;-59
2023/01/28 12:00:09;;;;;;;8.75;5.00;;;4.70;99.90;;;;;;5074837;28;20473;-60
2023/01/28 12:02:56;;;;;;;5.30;3.60;;;4.70;99.90;;;;;;5071660;28;20433;-60
2023/01/28 12:05:47;;;;;;;4.40;2.70;;;4.90;99.90;;;;;;5072686;28;20423;-60
2023/01/28 12:08:22;;;;;;;5.78;3.60;;;4.90;99.90;;;;;;5068871;28;20524;-61
2023/01/28 12:11:01;;;;;;;5.22;3.70;;;4.50;99.90;;;;;;5060441;28;20436;-62
2023/01/28 12:13:43;;;;;;;6.82;2.65;;;4.60;99.90;;;;;;5063124;28;20425;-61
2023/01/28 12:16:40;;;;;;;8.63;4.32;;;4.70;99.90;;;;;;5058577;28;20869;-61
2023/01/28 12:19:36;;;;;;;7.60;4.83;;;4.50;99.90;;;;;;5061631;28;20461;-62
2023/01/28 12:22:31;;;;;;;5.82;3.30;;;4.80;99.90;;;;;;5078806;28;20427;-62
2023/01/28 12:25:13;;;;;;;4.77;3.20;;;4.70;99.90;;;;;;5075193;28;21309;-62
2023/01/28 12:27:51;;;;;;;6.50;3.23;;;4.80;99.90;;;;;;5071994;28;20458;-62
2023/01/28 12:30:27;;;;;;;5.10;3.88;;;4.90;99.90;;;;;;5063373;28;20753;-62
2023/01/28 12:33:11;;;;;;;6.45;4.03;;;4.40;99.90;;;;;;5058314;28;20539;-61
2023/01/28 12:35:54;;;;;;;6.53;3.40;;;4.10;99.90;;;;;;5070650;28;20460;-62
2023/01/28 12:38:36;;;;;;;6.55;4.18;;;4.10;99.90;;;;;;5075825;28;20510;-63
2023/01/28 12:41:10;;;;;;;5.40;3.90;;;4.10;99.90;;;;;;5077376;28;20759;-62
2023/01/28 12:43:51;;;;;;;8.87;5.50;;;4.00;99.90;;;;;;5076420;28;20912;-62
2023/01/28 12:46:35;;;;;;;10.73;5.72;;;3.90;99.90;;;;;;5066343;28;20427;-62
2023/01/28 12:49:08;;;;;;;4.82;3.55;;;4.10;99.90;;;;;;5065344;28;20429;-63
2023/01/28 12:51:43;;;;;;;6.30;4.03;;;4.10;99.90;;;;;;5067712;28;20868;-63
2023/01/28 12:54:19;;;;;;;7.57;3.45;;;4.10;99.90;;;;;;5071544;28;20446;-63
2023/01/28 12:56:51;;;;;;;6.18;3.72;;;4.40;99.90;;;;;;5063642;28;20497;-62
2023/01/28 12:59:23;;;;;;;8.40;4.38;;;4.50;99.90;;;;;;5061488;28;20823;-62
2023/01/28 13:01:56;;;;;;;5.93;3.22;;;4.50;99.90;;;;;;5054705;28;20444;-63
2023/01/28 13:04:32;;;;;;;5.15;2.67;;;4.40;99.90;;;;;;5066322;28;20447;-62
2023/01/28 13:07:02;;;;;;;5.05;2.75;;;4.20;99.90;;;;;;5075162;28;20428;-62
2023/01/28 13:09:34;;;;;;;5.00;2.60;;;4.10;99.90;;;;;;5069589;28;20897;-64
2023/01/28 13:12:03;;;;;;;4.82;2.30;;;4.00;99.90;;;;;;5062119;28;20879;-64
2023/01/28 13:14:33;;;;;;;6.40;2.40;;;4.30;99.90;;;;;;5070061;28;20862;-64
2023/01/28 13:17:10;;;;;;;4.90;2.45;;;4.50;99.90;;;;;;5064148;28;20491;-64
2023/01/28 13:19:39;;;;;;;3.03;1.58;;;4.40;99.90;;;;;;5073125;28;20480;-64
2023/01/28 13:22:26;;;;;;;4.00;1.60;;;4.60;99.90;;;;;;5061335;28;20461;-65
2023/01/28 13:24:55;;;;;;;3.88;1.90;;;4.50;99.90;;;;;;5060795;28;20847;-64
2023/01/28 13:27:24;;;;;;;2.60;1.83;;;4.50;99.90;;;;;;5053123;28;20433;-63
2023/01/28 13:30:03;;;;;;;3.30;1.27;;;4.30;99.90;;;;;;5055619;28;20491;-64
2023/01/28 13:32:33;;;;;;;2.13;1.20;;;4.10;99.90;;;;;;5060505;28;20524;-66
2023/01/28 13:35:04;;;;;;;3.97;1.40;;;4.00;99.90;;;;;;5058085;28;20449;-64
2023/01/28 13:37:34;;;;;;;3.30;1.20;;;4.00;99.90;;;;;;5060865;28;20455;-63
2023/01/28 13:40:23;;;;;;;2.20;1.20;;;4.10;99.90;;;;;;5071687;28;20505;-66
2023/01/28 13:43:00;;;;;;;2.53;1.10;;;3.90;99.90;;;;;;5070354;28;20439;-64
2023/01/28 13:45:29;;;;;;;2.70;1.20;;;3.90;99.90;;;;;;5057361;28;20461;-64